createdAt,value
2022-11-12T00:02:21.032Z,72.82
2022-11-12T00:05:06.666Z,72.72
2022-11-12T00:07:52.093Z,73.04
2022-11-12T00:10:37.288Z,73.69
2022-11-12T00:13:22.807Z,73.62
2022-11-12T00:16:08.212Z,73.33
2022-11-12T00:18:53.543Z,72.60
2022-11-12T00:21:38.882Z,72.57
2022-11-12T00:24:24.163Z,72.66
2022-11-12T00:27:09.721Z,72.75
2022-11-12T00:29:55.168Z,72.83
2022-11-12T00:32:40.794Z,72.64
2022-11-12T00:35:25.791Z,73.27
2022-11-12T00:38:11.174Z,73.05
2022-11-12T00:40:59.727Z,72.99
2022-11-12T00:43:44.926Z,73.04
2022-11-12T00:46:30.769Z,73.00
2022-11-12T00:49:16.739Z,72.80
2022-11-12T00:52:01.970Z,72.60
2022-11-12T00:54:47.423Z,72.49
2022-11-12T00:57:32.954Z,72.43
2022-11-12T01:00:21.355Z,71.90
2022-11-12T01:03:06.900Z,71.63
2022-11-12T01:05:52.311Z,71.82
2022-11-12T01:08:38.325Z,71.38
2022-11-12T01:11:28.846Z,71.77
2022-11-12T01:14:14.295Z,72.02
2022-11-12T01:16:59.417Z,72.07
2022-11-12T01:19:44.847Z,72.35
2022-11-12T01:22:30.225Z,72.45
2022-11-12T01:25:15.880Z,72.12
2022-11-12T01:28:00.914Z,72.39
2022-11-12T01:30:46.283Z,72.79
2022-11-12T01:33:31.700Z,72.83
2022-11-12T01:36:18.061Z,72.83
2022-11-12T01:39:08.578Z,72.78
2022-11-12T01:41:54.306Z,73.04
2022-11-12T01:44:44.584Z,73.08
2022-11-12T01:47:34.052Z,73.12
2022-11-12T01:50:27.682Z,73.13
2022-11-12T01:53:14.177Z,73.61
2022-11-12T01:56:00.840Z,73.50
2022-11-12T01:58:49.313Z,73.86
2022-11-12T02:01:37.325Z,73.40
2022-11-12T02:04:22.856Z,73.16
2022-11-12T02:07:09.771Z,73.12
2022-11-12T02:09:55.291Z,73.20
2022-11-12T02:13:16.757Z,72.89
2022-11-12T02:16:04.587Z,73.01
2022-11-12T02:18:50.136Z,72.86
2022-11-12T02:21:36.103Z,73.29
2022-11-12T02:24:21.256Z,73.39
2022-11-12T02:27:07.499Z,73.23
2022-11-12T02:29:52.978Z,73.36
2022-11-12T02:32:38.358Z,73.67
2022-11-12T02:35:23.742Z,73.73
2022-11-12T02:38:09.550Z,73.26
2022-11-12T02:40:54.674Z,73.36
2022-11-12T02:43:41.153Z,73.54
2022-11-12T02:46:26.264Z,73.32
2022-11-12T02:49:11.380Z,73.69
2022-11-12T02:51:56.696Z,73.47
2022-11-12T02:54:41.874Z,73.46
2022-11-12T02:57:27.573Z,73.53
2022-11-12T03:00:14.010Z,73.45
2022-11-12T03:02:59.399Z,73.31
2022-11-12T03:05:46.554Z,73.75
2022-11-12T03:08:32.011Z,73.70
2022-11-12T03:11:18.062Z,73.72
2022-11-12T03:14:03.513Z,73.82
2022-11-12T03:16:48.908Z,72.89
2022-11-12T03:19:34.086Z,73.47
2022-11-12T03:22:19.495Z,73.28
2022-11-12T03:25:05.813Z,73.20
2022-11-12T03:28:17.338Z,73.07
2022-11-12T03:31:02.855Z,73.09
2022-11-12T03:33:48.205Z,73.31
2022-11-12T03:36:33.381Z,73.16
2022-11-12T03:39:18.849Z,72.59
2022-11-12T03:42:04.696Z,72.19
2022-11-12T03:44:50.203Z,72.78
2022-11-12T03:47:35.804Z,72.27
2022-11-12T03:50:22.959Z,72.27
2022-11-12T03:53:08.302Z,72.70
2022-11-12T03:55:53.496Z,72.50
2022-11-12T03:58:38.804Z,73.30
2022-11-12T04:01:23.893Z,73.38
2022-11-12T04:04:09.933Z,72.74
2022-11-12T04:07:13.653Z,73.18
2022-11-12T04:09:59.056Z,72.57
2022-11-12T04:13:02.754Z,72.99
2022-11-12T04:16:08.129Z,72.58
2022-11-12T04:19:14.932Z,72.87
2022-11-12T04:22:09.213Z,72.38
2022-11-12T04:25:12.838Z,72.87
2022-11-12T04:27:58.134Z,72.76
2022-11-12T04:30:43.488Z,73.78
2022-11-12T04:33:29.112Z,73.47
2022-11-12T04:36:14.204Z,73.92
2022-11-12T04:38:59.749Z,73.10
2022-11-12T04:42:03.705Z,73.20
2022-11-12T04:45:02.331Z,73.58
2022-11-12T04:47:47.433Z,73.31
2022-11-12T04:50:33.074Z,73.72
2022-11-12T04:53:18.623Z,73.88
2022-11-12T04:56:03.969Z,73.81
2022-11-12T04:58:49.312Z,74.12
2022-11-12T05:01:34.469Z,74.26
2022-11-12T05:04:20.064Z,73.99
2022-11-12T05:07:05.792Z,73.92
2022-11-12T05:09:50.897Z,73.84
2022-11-12T05:12:36.815Z,74.14
2022-11-12T05:15:22.349Z,73.81
2022-11-12T05:18:07.460Z,73.75
2022-11-12T05:20:53.464Z,73.62
2022-11-12T05:23:38.437Z,73.41
2022-11-12T05:26:23.882Z,73.25
2022-11-12T05:29:09.193Z,73.36
2022-11-12T05:31:55.323Z,72.71
2022-11-12T05:34:41.022Z,73.19
2022-11-12T05:37:26.413Z,72.35
2022-11-12T05:40:12.361Z,72.98
2022-11-12T05:42:57.499Z,72.74
2022-11-12T05:45:44.157Z,72.52
2022-11-12T05:48:29.975Z,72.82
2022-11-12T05:51:15.602Z,73.77
2022-11-12T05:54:01.479Z,73.56
2022-11-12T05:56:47.406Z,73.50
2022-11-12T05:59:32.751Z,73.24
2022-11-12T06:02:18.053Z,72.74
2022-11-12T06:05:03.601Z,72.81
2022-11-12T06:07:48.872Z,73.58
2022-11-12T06:10:34.762Z,73.81
2022-11-12T06:13:22.914Z,73.26
2022-11-12T06:16:08.739Z,74.06
2022-11-12T06:18:53.956Z,73.36
2022-11-12T06:21:39.252Z,72.97
2022-11-12T06:24:27.569Z,72.93
2022-11-12T06:27:15.839Z,72.75
2022-11-12T06:30:01.936Z,72.59
2022-11-12T06:32:48.199Z,72.38
2022-11-12T06:35:33.325Z,72.19
2022-11-12T06:38:18.726Z,72.43
2022-11-12T06:41:05.057Z,72.83
2022-11-12T06:43:50.342Z,72.90
2022-11-12T06:46:35.741Z,72.88
2022-11-12T06:49:20.731Z,73.19
2022-11-12T06:52:06.151Z,72.86
2022-11-12T06:54:51.419Z,73.13
2022-11-12T06:57:36.841Z,72.46
2022-11-12T07:00:22.033Z,72.20
2022-11-12T07:03:08.304Z,72.67
2022-11-12T07:05:53.441Z,71.83
2022-11-12T07:08:39.320Z,72.77
2022-11-12T07:11:24.726Z,72.25
2022-11-12T07:14:09.873Z,72.33
2022-11-12T07:16:55.566Z,71.91
2022-11-12T07:19:40.898Z,71.86
2022-11-12T07:22:25.952Z,71.80
2022-11-12T07:25:11.544Z,72.56
2022-11-12T07:27:57.136Z,71.93
2022-11-12T07:30:42.452Z,72.17
2022-11-12T07:33:28.535Z,73.53
2022-11-12T07:36:15.508Z,73.14
2022-11-12T07:39:00.802Z,74.27
2022-11-12T07:41:47.406Z,73.78
2022-11-12T07:44:32.656Z,73.93
2022-11-12T07:47:18.132Z,73.74
2022-11-12T07:50:03.365Z,73.73
2022-11-12T07:52:48.500Z,72.18
2022-11-12T07:55:33.760Z,72.50
2022-11-12T07:58:18.805Z,72.31
2022-11-12T08:01:12.422Z,72.01
2022-11-12T08:04:02.246Z,71.55
2022-11-12T08:06:47.557Z,71.24
2022-11-12T08:09:33.139Z,71.30
2022-11-12T08:12:18.583Z,70.76
2022-11-12T08:15:04.446Z,70.73
2022-11-12T08:17:50.198Z,71.04
2022-11-12T08:20:35.740Z,70.91
2022-11-12T08:23:21.069Z,70.66
2022-11-12T08:26:08.841Z,70.69
2022-11-12T08:28:54.377Z,70.61
2022-11-12T08:31:39.540Z,70.79
2022-11-12T08:34:25.080Z,70.81
2022-11-12T08:37:10.201Z,70.71
2022-11-12T08:39:55.693Z,70.85
2022-11-12T08:42:40.916Z,70.88
2022-11-12T08:45:26.995Z,70.23
2022-11-12T08:48:15.158Z,70.23
2022-11-12T08:51:04.947Z,69.17
2022-11-12T08:53:50.325Z,69.39
2022-11-12T08:56:35.790Z,69.49
2022-11-12T08:59:21.339Z,70.02
2022-11-12T09:02:12.807Z,70.13
2022-11-12T09:04:57.971Z,69.92
2022-11-12T09:07:50.093Z,70.05
2022-11-12T09:10:36.988Z,70.38
2022-11-12T09:13:22.254Z,70.31
2022-11-12T09:16:10.031Z,69.92
2022-11-12T09:18:55.272Z,70.22
2022-11-12T09:21:40.584Z,69.01
2022-11-12T09:24:25.687Z,69.55
2022-11-12T09:27:11.058Z,69.33
2022-11-12T09:29:56.505Z,69.81
2022-11-12T09:32:43.000Z,69.01
2022-11-12T09:35:28.051Z,68.86
2022-11-12T09:38:17.843Z,69.14
2022-11-12T09:41:13.471Z,68.90
2022-11-12T09:44:05.038Z,68.75
2022-11-12T09:47:02.744Z,68.23
2022-11-12T09:50:16.149Z,68.22
2022-11-12T09:53:16.723Z,67.43
2022-11-12T09:56:06.820Z,67.91
2022-11-12T09:58:52.547Z,68.29
2022-11-12T10:01:53.703Z,68.81
2022-11-12T10:05:21.159Z,68.76
2022-11-12T10:08:25.092Z,68.52
2022-11-12T10:11:28.239Z,68.42
2022-11-12T10:14:28.326Z,69.61
2022-11-12T10:17:31.814Z,69.77
2022-11-12T10:20:23.826Z,70.59
2022-11-12T10:23:45.939Z,70.86
2022-11-12T10:26:33.080Z,70.83
2022-11-12T10:29:25.893Z,70.70
2022-11-12T10:32:15.692Z,70.33
2022-11-12T10:35:00.892Z,70.04
2022-11-12T10:37:58.999Z,69.94
2022-11-12T10:40:44.517Z,69.69
2022-11-12T10:43:29.759Z,69.44
2022-11-12T10:46:26.316Z,68.51
2022-11-12T10:49:14.752Z,68.72
2022-11-12T10:51:59.932Z,68.47
2022-11-12T10:54:46.218Z,68.36
2022-11-12T10:57:34.076Z,68.67
2022-11-12T11:00:20.928Z,69.15
2022-11-12T11:03:21.567Z,69.09
2022-11-12T11:06:21.097Z,69.35
2022-11-12T11:09:12.302Z,69.83
2022-11-12T11:11:57.687Z,69.52
2022-11-12T11:14:44.470Z,69.35
2022-11-12T11:17:30.420Z,69.18
2022-11-12T11:20:25.595Z,69.05
2022-11-12T11:23:32.407Z,69.11
2022-11-12T11:26:54.372Z,68.53
2022-11-12T11:29:54.445Z,68.82
2022-11-12T11:32:57.896Z,69.29
2022-11-12T11:36:02.322Z,69.23
2022-11-12T11:38:59.717Z,69.11
2022-11-12T11:41:44.740Z,68.75
2022-11-12T11:44:57.766Z,68.44
2022-11-12T11:48:15.475Z,68.71
2022-11-12T11:51:26.261Z,68.07
2022-11-12T11:54:23.659Z,68.45
2022-11-12T11:57:15.656Z,68.30
2022-11-12T12:00:16.460Z,68.63
2022-11-12T12:03:18.426Z,68.56
2022-11-12T12:06:22.029Z,68.20
2022-11-12T12:09:27.302Z,68.76
2022-11-12T12:12:33.395Z,69.12
2022-11-12T12:15:38.860Z,68.76
2022-11-12T12:19:01.641Z,68.52
2022-11-12T12:21:50.088Z,68.90
2022-11-12T12:24:47.347Z,68.69
2022-11-12T12:27:37.083Z,68.79
2022-11-12T12:30:24.960Z,68.42
2022-11-12T12:33:25.764Z,68.42
2022-11-12T12:36:18.080Z,68.75
2022-11-12T12:39:12.787Z,69.53
2022-11-12T12:42:12.555Z,69.28
2022-11-12T12:45:19.504Z,69.73
2022-11-12T12:48:08.893Z,69.71
2022-11-12T12:50:54.347Z,69.21
2022-11-12T12:53:40.617Z,69.29
2022-11-12T12:56:28.574Z,68.76
2022-11-12T12:59:21.923Z,68.24
2022-11-12T13:02:21.306Z,68.66
2022-11-12T13:05:21.613Z,68.91
2022-11-12T13:08:13.687Z,69.38
2022-11-12T13:10:59.632Z,69.01
2022-11-12T13:13:44.818Z,69.02
2022-11-12T13:16:57.058Z,69.70
2022-11-12T13:19:54.389Z,69.48
2022-11-12T13:22:39.656Z,70.25
2022-11-12T13:25:28.471Z,69.93
2022-11-12T13:28:14.312Z,69.91
2022-11-12T13:31:01.612Z,69.71
2022-11-12T13:33:47.567Z,69.44
2022-11-12T13:36:33.055Z,69.73
2022-11-12T13:39:20.223Z,69.57
2022-11-12T13:42:34.743Z,69.38
2022-11-12T13:45:27.313Z,68.87
2022-11-12T13:48:18.088Z,69.47
2022-11-12T13:51:07.475Z,69.91
2022-11-12T13:53:52.838Z,70.36
2022-11-12T13:56:39.046Z,70.07
2022-11-12T13:59:26.096Z,70.16
2022-11-12T14:02:21.063Z,70.20
2022-11-12T14:05:17.381Z,69.78
2022-11-12T14:08:14.943Z,70.01
2022-11-12T14:11:15.517Z,70.36
2022-11-12T14:14:37.177Z,69.78
2022-11-12T14:17:40.358Z,70.58
2022-11-12T14:20:26.105Z,70.91
2022-11-12T14:23:18.825Z,71.05
2022-11-12T14:26:07.193Z,71.69
2022-11-12T14:28:56.934Z,71.95
2022-11-12T14:31:42.439Z,72.22
2022-11-12T14:34:34.689Z,71.79
2022-11-12T14:37:43.015Z,71.50
2022-11-12T14:40:31.766Z,71.02
2022-11-12T14:43:27.133Z,71.08
2022-11-12T14:46:43.488Z,70.85
2022-11-12T14:49:44.776Z,71.17
2022-11-12T14:52:40.678Z,71.69
2022-11-12T14:55:35.556Z,72.04
2022-11-12T14:58:23.027Z,71.79
2022-11-12T15:04:52.513Z,72.69
2022-11-12T15:08:01.875Z,72.75
2022-11-12T15:10:47.554Z,72.70
2022-11-12T15:13:40.106Z,72.76
2022-11-12T15:16:34.087Z,72.67
2022-11-12T15:19:23.360Z,72.16
2022-11-12T15:22:20.104Z,71.74
2022-11-12T15:25:24.775Z,71.33
2022-11-12T15:28:21.465Z,71.71
2022-11-12T15:31:21.615Z,71.99
2022-11-12T15:34:32.150Z,71.80
2022-11-12T15:37:17.289Z,71.95
2022-11-12T15:40:11.433Z,72.42
2022-11-12T15:42:57.923Z,72.75
2022-11-12T15:45:43.504Z,72.39
2022-11-12T15:48:28.767Z,72.47
2022-11-12T15:51:16.138Z,72.95
2022-11-12T15:54:01.554Z,74.07
2022-11-12T15:56:47.651Z,74.08
2022-11-12T15:59:32.898Z,73.36
2022-11-12T16:02:18.026Z,73.59
2022-11-12T16:05:03.097Z,73.58
2022-11-12T16:07:48.643Z,73.80
2022-11-12T16:10:34.338Z,74.01
2022-11-12T16:13:33.153Z,73.92
2022-11-12T16:16:18.819Z,74.09
2022-11-12T16:19:04.103Z,73.78
2022-11-12T16:21:49.682Z,74.46
2022-11-12T16:24:35.062Z,74.50
2022-11-12T16:27:22.656Z,74.60
2022-11-12T16:30:20.455Z,74.71
2022-11-12T16:33:05.842Z,74.95
2022-11-12T16:35:51.390Z,74.81
2022-11-12T16:38:36.374Z,74.87
2022-11-12T16:41:21.852Z,74.82
2022-11-12T16:44:07.260Z,74.88
2022-11-12T16:46:52.519Z,74.98
2022-11-12T16:49:39.020Z,75.33
2022-11-12T16:52:24.340Z,75.42
2022-11-12T16:55:10.014Z,75.51
2022-11-12T16:57:55.182Z,75.32
2022-11-12T17:00:41.893Z,75.80
2022-11-12T17:03:27.666Z,75.66
2022-11-12T17:06:13.123Z,75.63
2022-11-12T17:08:58.626Z,75.85
2022-11-12T17:11:43.686Z,75.66
2022-11-12T17:14:28.938Z,75.87
2022-11-12T17:17:14.195Z,75.49
2022-11-12T17:19:59.797Z,75.99
2022-11-12T17:22:45.343Z,76.16
2022-11-12T17:25:30.704Z,75.93
2022-11-12T17:28:16.032Z,75.85
2022-11-12T17:31:11.374Z,75.56
2022-11-12T17:33:56.796Z,75.90
2022-11-12T17:36:43.807Z,76.17
2022-11-12T17:39:29.721Z,76.57
2022-11-12T17:42:15.067Z,76.59
2022-11-12T17:45:00.387Z,76.62
2022-11-12T17:47:45.990Z,76.90
2022-11-12T17:50:31.110Z,76.97
2022-11-12T17:53:16.987Z,76.93
2022-11-12T17:56:02.969Z,77.45
2022-11-12T17:58:51.806Z,78.04
2022-11-12T18:01:37.899Z,77.67
2022-11-12T18:04:24.087Z,77.71
2022-11-12T18:07:09.723Z,77.54
2022-11-12T18:09:55.104Z,77.70
2022-11-12T18:12:40.647Z,77.44
2022-11-12T18:15:25.919Z,77.04
2022-11-12T18:18:11.263Z,76.88
2022-11-12T18:20:57.058Z,76.83
2022-11-12T18:23:45.339Z,76.57
2022-11-12T18:26:30.806Z,76.10
2022-11-12T18:29:15.957Z,75.79
2022-11-12T18:32:01.864Z,75.91
2022-11-12T18:34:47.287Z,75.99
2022-11-12T18:37:33.526Z,76.64
2022-11-12T18:40:19.869Z,77.08
2022-11-12T18:43:05.025Z,76.92
2022-11-12T18:45:59.005Z,77.10
2022-11-12T18:48:44.278Z,76.80
2022-11-12T18:51:29.666Z,76.98
2022-11-12T18:54:16.150Z,76.84
2022-11-12T18:57:01.341Z,77.06
2022-11-12T18:59:47.835Z,76.79
2022-11-12T19:02:33.298Z,76.62
2022-11-12T19:05:20.942Z,76.48
2022-11-12T19:08:06.095Z,76.23
2022-11-12T19:11:00.651Z,76.58
2022-11-12T19:13:49.297Z,76.69
2022-11-12T19:16:35.454Z,76.61
2022-11-12T19:19:20.504Z,77.01
2022-11-12T19:22:05.891Z,76.75
2022-11-12T19:24:51.079Z,76.64
2022-11-12T19:27:36.198Z,76.71
2022-11-12T19:30:21.733Z,76.82
2022-11-12T19:33:07.193Z,77.36
2022-11-12T19:35:52.324Z,77.57
2022-11-12T19:38:37.786Z,77.33
2022-11-12T19:41:24.192Z,77.92
2022-11-12T19:44:12.256Z,77.67
2022-11-12T19:46:57.592Z,78.12
2022-11-12T19:49:42.994Z,78.65
2022-11-12T19:52:28.361Z,78.28
2022-11-12T19:55:13.757Z,78.43
2022-11-12T19:57:59.610Z,78.19
2022-11-12T20:00:45.002Z,77.97
2022-11-12T20:03:30.496Z,78.30
2022-11-12T20:06:19.212Z,78.08
2022-11-12T20:09:04.793Z,77.70
2022-11-12T20:11:51.062Z,77.74
2022-11-12T20:14:37.036Z,78.09
2022-11-12T20:17:22.138Z,78.20
2022-11-12T20:20:09.336Z,78.49
2022-11-12T20:22:54.584Z,78.57
2022-11-12T20:25:39.952Z,78.23
2022-11-12T20:28:25.391Z,78.48
2022-11-12T20:31:12.091Z,78.38
2022-11-12T20:33:57.356Z,78.30
2022-11-12T20:36:42.451Z,77.92
2022-11-12T20:39:27.460Z,78.01
2022-11-12T20:42:12.878Z,77.90
2022-11-12T20:44:57.840Z,77.90
2022-11-12T20:47:43.280Z,78.00
2022-11-12T20:50:28.516Z,77.75
2022-11-12T20:53:13.947Z,77.74
2022-11-12T20:56:07.864Z,77.88
2022-11-12T20:58:53.552Z,78.44
2022-11-12T21:01:38.762Z,78.27
2022-11-12T21:04:24.827Z,77.83
2022-11-12T21:07:10.218Z,77.89
2022-11-12T21:09:55.691Z,78.18
2022-11-12T21:12:40.888Z,77.81
2022-11-12T21:15:26.281Z,77.41
2022-11-12T21:18:11.777Z,77.50
2022-11-12T21:21:01.767Z,77.36
2022-11-12T21:23:49.829Z,77.10
2022-11-12T21:26:35.505Z,77.15
2022-11-12T21:29:20.952Z,76.87
2022-11-12T21:32:06.404Z,76.46
2022-11-12T21:34:52.705Z,76.49
2022-11-12T21:37:38.153Z,76.77
2022-11-12T21:40:25.049Z,76.91
2022-11-12T21:43:10.171Z,77.19
2022-11-12T21:45:55.642Z,77.19
2022-11-12T21:48:41.186Z,77.31
2022-11-12T21:51:29.089Z,77.10
2022-11-12T21:54:14.995Z,77.33
2022-11-12T21:57:00.016Z,77.15
2022-11-12T21:59:45.572Z,77.31
2022-11-12T22:02:30.602Z,77.42
2022-11-12T22:05:16.118Z,77.50
2022-11-12T22:08:01.502Z,77.38
2022-11-12T22:10:47.121Z,77.57
2022-11-12T22:13:33.560Z,78.47
2022-11-12T22:16:24.298Z,78.16
2022-11-12T22:19:12.762Z,77.84
2022-11-12T22:21:58.285Z,78.01
2022-11-12T22:24:43.628Z,77.98
2022-11-12T22:27:31.390Z,77.78
2022-11-12T22:30:16.879Z,77.65
2022-11-12T22:33:01.872Z,77.74
2022-11-12T22:35:47.042Z,77.43
2022-11-12T22:38:43.066Z,77.90
2022-11-12T22:41:30.832Z,77.72
2022-11-12T22:44:16.227Z,77.56
2022-11-12T22:47:02.612Z,78.09
2022-11-12T22:49:48.834Z,77.79
2022-11-12T22:52:33.906Z,77.49
2022-11-12T22:55:19.254Z,77.57
2022-11-12T22:58:04.396Z,77.55
2022-11-12T23:00:49.948Z,77.42
2022-11-12T23:03:37.318Z,77.49
2022-11-12T23:06:22.996Z,77.44
2022-11-12T23:09:14.713Z,77.80
2022-11-12T23:11:59.707Z,77.61
2022-11-12T23:14:44.784Z,78.03
2022-11-12T23:17:30.342Z,78.35
2022-11-12T23:20:16.000Z,78.09
2022-11-12T23:23:01.165Z,78.33
2022-11-12T23:25:46.881Z,78.21
2022-11-12T23:28:33.676Z,78.08
2022-11-12T23:31:22.026Z,78.30
2022-11-12T23:34:07.361Z,78.09
2022-11-12T23:36:52.819Z,78.01
2022-11-12T23:39:38.294Z,77.82
2022-11-12T23:42:23.761Z,77.38
2022-11-12T23:45:09.892Z,77.61
2022-11-12T23:47:57.076Z,77.39
2022-11-12T23:50:42.741Z,77.57
2022-11-12T23:53:27.978Z,77.63
2022-11-12T23:56:15.456Z,77.21
2022-11-12T23:59:00.815Z,77.27
